Time;durP1;ratioP1;P1;durP2;ratioP2;P2;SDS_P1;SDS_P2;PMS_P1;PMS_P2;Temp;Humidity;BMP_temperature;BMP_pressure;BME280_temperature;BME280_humidity;BME280_pressure;Samples;Min_cycle;Max_cycle;Signal;HPM_P1;HPM_P2
2022/03/04 00:01:56;;;;;;;60.85;23.88;;;;;;;3.85;58.40;101905.56;5035143;28;20026;-49
2022/03/04 00:04:21;;;;;;;60.63;21.33;;;;;;;3.79;59.10;101911.31;5031532;28;20022;-47
2022/03/04 00:06:47;;;;;;;62.33;22.73;;;;;;;3.83;58.98;101902.16;5032881;28;20029;-48
2022/03/04 00:09:12;;;;;;;57.22;23.75;;;;;;;3.77;58.85;101906.13;5029462;28;20526;-48
2022/03/04 00:11:38;;;;;;;67.70;24.35;;;;;;;3.77;58.59;101907.94;5034910;28;20029;-48
2022/03/04 00:14:03;;;;;;;59.65;22.73;;;;;;;3.78;59.27;101906.97;5035038;28;20029;-48
2022/03/04 00:16:29;;;;;;;63.47;22.95;;;;;;;3.77;58.71;101908.78;5034296;28;20022;-49
2022/03/04 00:19:12;;;;;;;62.53;22.63;;;;;;;3.76;59.02;101908.91;5029472;28;20037;-47
2022/03/04 00:21:48;;;;;;;66.45;22.52;;;;;;;3.69;59.16;101905.84;5031168;28;20029;-46
2022/03/04 00:24:14;;;;;;;65.00;23.48;;;;;;;3.64;59.78;101900.84;5034418;28;20081;-48
2022/03/04 00:26:40;;;;;;;60.55;22.15;;;;;;;3.60;59.49;101907.34;5035061;28;20116;-49
2022/03/04 00:29:06;;;;;;;65.28;24.15;;;;;;;3.52;59.68;101905.22;5033531;28;20488;-46
2022/03/04 00:31:33;;;;;;;68.28;23.83;;;;;;;3.48;59.92;101902.91;5032398;28;20033;-48
2022/03/04 00:33:59;;;;;;;62.80;23.88;;;;;;;3.41;60.44;101906.97;5033630;28;20153;-50
2022/03/04 00:36:24;;;;;;;62.03;23.67;;;;;;;3.34;60.89;101911.84;5028916;28;20112;-48
2022/03/04 00:38:51;;;;;;;58.83;22.20;;;;;;;3.35;61.01;101912.72;5034414;28;20034;-46
2022/03/04 00:41:18;;;;;;;60.28;23.75;;;;;;;3.39;60.64;101914.19;5033132;28;20374;-47
2022/03/04 00:43:43;;;;;;;68.32;25.40;;;;;;;3.24;61.78;101910.84;5033075;28;20041;-48
2022/03/04 00:46:09;;;;;;;69.18;25.02;;;;;;;3.14;61.81;101915.09;5034168;28;20034;-48
2022/03/04 00:48:34;;;;;;;67.82;24.27;;;;;;;3.08;62.35;101919.00;5033884;28;20049;-50
2022/03/04 00:51:00;;;;;;;73.55;26.38;;;;;;;2.97;63.09;101918.91;5028882;28;20033;-45
2022/03/04 00:53:25;;;;;;;77.88;24.13;;;;;;;2.88;63.19;101911.56;5034043;28;20052;-48
2022/03/04 00:55:50;;;;;;;70.00;25.38;;;;;;;2.90;63.26;101912.31;5033032;28;20037;-46
2022/03/04 00:58:16;;;;;;;70.35;25.00;;;;;;;2.95;63.05;101916.38;5032371;28;20025;-48
2022/03/04 01:00:41;;;;;;;65.93;24.85;;;;;;;2.93;63.92;101912.97;5030613;28;20025;-50
2022/03/04 01:03:06;;;;;;;62.60;24.42;;;;;;;2.91;64.09;101919.34;5034008;28;20124;-48
2022/03/04 01:05:32;;;;;;;63.00;23.15;;;;;;;2.94;63.45;101922.63;5033938;28;20101;-48
2022/03/04 01:07:57;;;;;;;69.50;23.77;;;;;;;2.95;62.70;101912.84;5034164;28;20408;-48
2022/03/04 01:10:22;;;;;;;61.92;23.23;;;;;;;2.89;63.42;101918.59;5032934;28;20032;-48
2022/03/04 01:12:48;;;;;;;66.00;24.73;;;;;;;2.94;63.10;101917.31;5033605;28;20026;-48
2022/03/04 01:15:13;;;;;;;63.97;24.42;;;;;;;2.95;62.41;101924.34;5033403;28;20034;-46
2022/03/04 01:17:38;;;;;;;59.85;24.42;;;;;;;2.90;62.92;101918.50;5033856;28;20048;-48
2022/03/04 01:20:05;;;;;;;67.65;25.60;;;;;;;2.80;64.01;101912.09;5031700;28;20029;-48
2022/03/04 01:22:30;;;;;;;70.28;26.77;;;;;;;2.75;63.54;101914.22;5033892;28;20030;-46
2022/03/04 01:24:55;;;;;;;77.93;26.20;;;;;;;2.71;63.69;101915.38;5033796;28;20119;-48
2022/03/04 01:27:21;;;;;;;68.38;26.08;;;;;;;2.61;64.49;101907.19;5034217;28;20069;-46
2022/03/04 01:29:46;;;;;;;64.60;23.33;;;;;;;2.58;65.15;101912.69;5032266;28;20033;-49
2022/03/04 01:32:12;;;;;;;67.60;25.73;;;;;;;2.56;64.91;101909.31;5020462;28;20091;-50
2022/03/04 01:34:37;;;;;;;73.05;25.92;;;;;;;2.55;64.76;101907.59;5033689;28;20040;-48
2022/03/04 01:37:03;;;;;;;64.72;23.70;;;;;;;2.50;65.11;101907.94;5032863;28;20025;-49
2022/03/04 01:39:29;;;;;;;70.90;24.40;;;;;;;2.59;64.15;101909.94;5033389;28;20029;-48
2022/03/04 01:41:54;;;;;;;75.50;26.00;;;;;;;2.60;64.39;101908.13;5032361;28;20064;-46
2022/03/04 01:44:20;;;;;;;65.03;24.27;;;;;;;2.59;64.48;101909.09;5033285;28;20049;-47
2022/03/04 01:46:45;;;;;;;67.88;25.25;;;;;;;2.50;64.56;101904.38;5033426;28;20021;-47
2022/03/04 01:49:11;;;;;;;73.50;26.50;;;;;;;2.43;65.40;101896.00;5030961;28;20057;-48
2022/03/04 01:51:36;;;;;;;72.35;24.35;;;;;;;2.40;65.64;101904.19;5027506;28;20033;-47
2022/03/04 01:54:02;;;;;;;179.55;68.47;;;;;;;2.40;66.04;101902.38;5032954;28;20091;-47
2022/03/04 01:56:27;;;;;;;88.40;31.10;;;;;;;2.38;65.37;101896.28;5032942;28;20045;-47
2022/03/04 01:58:53;;;;;;;80.47;28.38;;;;;;;2.36;65.98;101900.84;5032117;28;20559;-48
2022/03/04 02:01:18;;;;;;;65.63;23.55;;;;;;;2.42;65.42;101897.81;5031985;28;20038;-50
2022/03/04 02:03:44;;;;;;;67.60;24.25;;;;;;;2.47;65.17;101894.81;5032766;28;20542;-47
2022/03/04 02:06:09;;;;;;;68.70;24.70;;;;;;;2.44;64.89;101899.50;5032627;28;20468;-48
2022/03/04 02:08:34;;;;;;;66.53;24.42;;;;;;;2.40;65.12;101891.75;5032788;28;20507;-48
2022/03/04 02:11:00;;;;;;;70.10;24.05;;;;;;;2.39;65.57;101884.69;5033010;28;20029;-49
2022/03/04 02:13:25;;;;;;;64.68;22.83;;;;;;;2.43;65.04;101888.03;5031457;28;20481;-48
2022/03/04 02:15:50;;;;;;;63.47;24.65;;;;;;;2.47;64.75;101883.34;5032409;28;20036;-48
2022/03/04 02:18:17;;;;;;;66.38;24.00;;;;;;;2.49;64.31;101890.25;5032089;28;20056;-48
2022/03/04 02:20:46;;;;;;;68.78;25.30;;;;;;;2.39;64.86;101886.53;5030940;28;20037;-48
2022/03/04 02:23:12;;;;;;;67.88;23.52;;;;;;;2.48;64.99;101885.06;5029744;28;20029;-48
2022/03/04 02:25:39;;;;;;;73.43;24.80;;;;;;;2.44;65.26;101886.22;5032464;28;20026;-47
2022/03/04 02:28:04;;;;;;;68.78;24.52;;;;;;;2.38;65.02;101890.16;5032852;28;20476;-48
2022/03/04 02:30:30;;;;;;;62.85;24.08;;;;;;;2.42;65.38;101883.66;5031619;28;20035;-48
2022/03/04 02:32:55;;;;;;;70.65;24.20;;;;;;;2.37;65.50;101889.28;5025436;28;20037;-50
2022/03/04 02:35:20;;;;;;;64.45;23.60;;;;;;;2.35;65.76;101891.19;5032410;28;20025;-49
2022/03/04 02:37:46;;;;;;;74.43;24.38;;;;;;;2.31;65.75;101884.38;5032063;28;20037;-50
2022/03/04 02:40:11;;;;;;;68.20;25.42;;;;;;;2.29;66.01;101890.75;5032521;28;20049;-48
2022/03/04 02:42:37;;;;;;;67.30;24.77;;;;;;;2.28;66.14;101889.91;5031543;28;20029;-48
2022/03/04 02:45:03;;;;;;;71.32;25.98;;;;;;;2.24;66.21;101877.78;5031429;28;20088;-48
2022/03/04 02:47:28;;;;;;;66.50;24.42;;;;;;;2.19;66.21;101880.75;5031131;28;20436;-47
2022/03/04 02:49:53;;;;;;;78.13;25.20;;;;;;;2.16;66.18;101874.81;5031152;28;20073;-48
2022/03/04 02:52:19;;;;;;;72.70;24.23;;;;;;;2.21;66.55;101872.66;5026658;28;20041;-50
2022/03/04 02:54:44;;;;;;;68.45;24.52;;;;;;;2.24;66.45;101872.47;5033003;28;20045;-47
2022/03/04 02:57:09;;;;;;;72.55;25.80;;;;;;;2.20;65.88;101870.97;5031835;28;20022;-48
2022/03/04 02:59:35;;;;;;;72.72;25.55;;;;;;;2.15;65.80;101870.41;5032338;28;20478;-48
2022/03/04 03:02:00;;;;;;;67.38;24.42;;;;;;;2.13;66.11;101880.28;5032698;28;20529;-48
2022/03/04 03:04:25;;;;;;;74.13;25.65;;;;;;;2.15;65.88;101873.91;5032086;28;20546;-50
2022/03/04 03:06:52;;;;;;;73.28;25.08;;;;;;;2.20;65.78;101871.81;5032349;28;20504;-47
2022/03/04 03:09:17;;;;;;;68.35;23.33;;;;;;;2.08;66.53;101866.47;5032312;28;20026;-48
2022/03/04 03:11:42;;;;;;;79.40;25.40;;;;;;;2.04;67.01;101867.63;5031388;28;20492;-50
2022/03/04 03:14:08;;;;;;;75.25;24.67;;;;;;;2.01;67.26;101883.78;5024562;28;20030;-50
2022/03/04 03:16:33;;;;;;;80.53;26.45;;;;;;;2.04;66.80;101879.09;5028901;28;20103;-49
2022/03/04 03:18:58;;;;;;;71.97;24.88;;;;;;;2.02;66.95;101881.00;5031596;28;20037;-51
2022/03/04 03:21:23;;;;;;;74.88;24.70;;;;;;;2.03;67.23;101868.56;5032534;28;20083;-48
2022/03/04 03:23:49;;;;;;;75.93;25.70;;;;;;;2.05;66.95;101877.28;5031788;28;20030;-47
2022/03/04 03:26:14;;;;;;;75.90;25.35;;;;;;;2.03;66.73;101874.75;5032510;28;20026;-47
2022/03/04 03:28:39;;;;;;;74.47;24.40;;;;;;;2.08;66.80;101867.34;5029938;28;20034;-50
2022/03/04 03:31:05;;;;;;;72.47;25.50;;;;;;;2.14;66.60;101866.91;5031465;28;20119;-46
2022/03/04 03:33:31;;;;;;;77.97;26.73;;;;;;;2.13;66.43;101864.34;5031147;28;20014;-47
2022/03/04 03:35:56;;;;;;;77.70;25.58;;;;;;;2.13;66.28;101864.34;5032087;28;20166;-49
2022/03/04 03:38:22;;;;;;;79.32;26.90;;;;;;;2.01;66.72;101871.34;5032663;28;20029;-48
2022/03/04 03:40:48;;;;;;;74.50;25.55;;;;;;;2.00;67.22;101871.44;5030187;28;20434;-48
2022/03/04 03:43:14;;;;;;;76.93;26.83;;;;;;;2.04;67.27;101870.28;5030893;28;20121;-46
2022/03/04 03:45:39;;;;;;;71.40;25.52;;;;;;;2.03;66.53;101871.22;5031592;28;20508;-48
2022/03/04 03:48:05;;;;;;;81.88;27.00;;;;;;;1.98;67.19;101872.41;5033507;28;20033;-49
2022/03/04 03:50:30;;;;;;;73.38;26.10;;;;;;;2.04;67.18;101873.78;5042423;28;20374;-47
2022/03/04 03:52:56;;;;;;;81.10;27.33;;;;;;;2.00;67.39;101866.13;5023583;28;20022;-48
2022/03/04 03:55:22;;;;;;;74.00;25.88;;;;;;;2.00;67.09;101866.13;5019240;28;20358;-50
2022/03/04 03:57:47;;;;;;;78.00;26.30;;;;;;;1.96;67.35;101876.94;5024307;28;20503;-48
2022/03/04 04:00:13;;;;;;;79.97;26.33;;;;;;;1.95;67.10;101867.28;5015626;28;20049;-48
2022/03/04 04:02:39;;;;;;;73.75;25.38;;;;;;;1.86;67.51;101873.19;5012188;28;20406;-47
2022/03/04 04:05:05;;;;;;;82.68;27.45;;;;;;;1.74;68.02;101885.47;5029345;28;20055;-48
2022/03/04 04:07:31;;;;;;;77.20;25.63;;;;;;;1.73;68.15;101880.25;5019720;28;20038;-49
2022/03/04 04:09:56;;;;;;;84.03;27.88;;;;;;;1.69;68.33;101884.91;5017752;28;20180;-47
2022/03/04 04:12:22;;;;;;;71.78;26.58;;;;;;;1.66;68.65;101882.47;5032152;28;20032;-49
2022/03/04 04:14:47;;;;;;;76.85;26.00;;;;;;;1.73;68.32;101888.22;5034058;28;20104;-48
2022/03/04 04:17:13;;;;;;;84.47;28.27;;;;;;;1.67;68.57;101883.31;5034940;28;20040;-48
2022/03/04 04:19:38;;;;;;;76.07;26.25;;;;;;;1.66;68.74;101887.78;5035250;28;20025;-47
2022/03/04 04:22:03;;;;;;;78.45;26.95;;;;;;;1.63;69.27;101895.06;5034951;28;20045;-47
2022/03/04 04:24:29;;;;;;;84.10;27.67;;;;;;;1.60;69.34;101892.59;5026146;28;20367;-47
2022/03/04 04:26:54;;;;;;;74.97;26.42;;;;;;;1.60;69.42;101898.75;5034700;28;20025;-47
2022/03/04 04:29:19;;;;;;;87.75;28.90;;;;;;;1.54;68.86;101897.34;5034312;28;20468;-48
2022/03/04 04:31:45;;;;;;;76.07;25.70;;;;;;;1.57;69.33;101892.81;5034627;28;20021;-48
2022/03/04 04:34:10;;;;;;;89.63;27.88;;;;;;;1.54;69.57;101897.34;5024073;28;20052;-48
2022/03/04 04:36:36;;;;;;;82.13;27.33;;;;;;;1.50;69.43;101902.94;5033685;28;20116;-48
2022/03/04 04:39:02;;;;;;;80.38;26.55;;;;;;;1.50;69.28;101900.28;5034561;28;20071;-48
2022/03/04 04:41:28;;;;;;;85.05;28.58;;;;;;;1.44;69.24;101898.88;5034867;28;20448;-50
2022/03/04 04:43:53;;;;;;;87.15;28.20;;;;;;;1.43;69.56;101906.94;5024170;28;20109;-49
2022/03/04 04:46:19;;;;;;;82.72;27.90;;;;;;;1.43;69.32;101897.19;5034384;28;20037;-48
2022/03/04 04:48:44;;;;;;;87.07;28.58;;;;;;;1.41;69.70;101899.06;5033815;28;20037;-48
2022/03/04 04:51:09;;;;;;;91.28;29.17;;;;;;;1.41;69.86;101900.88;5034567;28;20361;-48
2022/03/04 04:53:35;;;;;;;81.38;26.45;;;;;;;1.38;69.37;101903.72;5029951;28;20045;-47
2022/03/04 04:56:01;;;;;;;92.95;27.42;;;;;;;1.37;69.66;101902.00;5025934;28;20397;-48
2022/03/04 04:58:27;;;;;;;83.78;27.05;;;;;;;1.34;69.66;101905.69;5034173;28;20022;-50
2022/03/04 05:00:53;;;;;;;82.78;27.73;;;;;;;1.28;70.24;101898.97;5034121;28;20053;-47
2022/03/04 05:03:23;;;;;;;88.43;28.35;;;;;;;1.22;69.94;101909.13;5032037;28;20025;-47
2022/03/04 05:05:49;;;;;;;85.97;27.85;;;;;;;1.12;70.59;101902.69;5030472;28;20378;-49
2022/03/04 05:08:15;;;;;;;80.40;27.30;;;;;;;1.10;70.40;101906.28;5022218;28;20425;-49
2022/03/04 05:10:40;;;;;;;85.30;29.08;;;;;;;1.05;70.72;101911.03;5033362;28;20030;-50
2022/03/04 05:13:06;;;;;;;86.38;28.90;;;;;;;1.04;71.21;101905.81;5031208;28;20017;-47
2022/03/04 05:15:31;;;;;;;91.88;28.42;;;;;;;1.12;70.78;101915.94;5031763;28;20116;-48
2022/03/04 05:17:56;;;;;;;86.43;27.73;;;;;;;1.09;70.89;101920.50;5033393;28;20116;-49
2022/03/04 05:20:22;;;;;;;87.80;28.73;;;;;;;1.10;70.69;101911.56;5033339;28;20056;-48
2022/03/04 05:22:47;;;;;;;83.72;28.50;;;;;;;1.05;71.09;101919.00;5034097;28;20040;-48
2022/03/04 05:25:13;;;;;;;75.57;27.13;;;;;;;1.05;71.06;101911.03;5029103;28;20050;-48
2022/03/04 05:27:38;;;;;;;88.20;28.38;;;;;;;1.04;71.19;101911.97;5029178;28;20490;-49
2022/03/04 05:30:04;;;;;;;84.60;28.27;;;;;;;1.07;70.59;101911.78;5033008;28;20080;-48
2022/03/04 05:32:30;;;;;;;85.13;29.13;;;;;;;0.95;71.35;101914.31;5033516;28;20033;-48
2022/03/04 05:34:55;;;;;;;80.68;27.45;;;;;;;0.90;71.89;101924.38;5023582;28;20351;-48
2022/03/04 05:37:21;;;;;;;102.90;30.05;;;;;;;0.85;72.10;101927.28;5013808;28;20044;-47
2022/03/04 05:39:46;;;;;;;95.07;29.85;;;;;;;0.87;72.02;101936.00;5028263;28;20025;-48
2022/03/04 05:42:11;;;;;;;82.90;28.63;;;;;;;0.76;72.24;101927.81;5033077;28;20404;-48
2022/03/04 05:44:37;;;;;;;86.13;28.80;;;;;;;0.80;72.50;101929.38;5022554;28;20084;-47
2022/03/04 05:47:02;;;;;;;84.18;29.70;;;;;;;0.82;72.11;101930.13;5032505;28;20421;-48
2022/03/04 05:49:28;;;;;;;88.32;29.23;;;;;;;0.76;72.39;101927.81;5032993;28;20054;-48
2022/03/04 05:51:53;;;;;;;92.28;31.52;;;;;;;0.77;72.75;101930.41;5033599;28;20396;-47
2022/03/04 05:54:18;;;;;;;87.13;30.38;;;;;;;0.74;72.87;101929.72;5029379;28;20384;-48
2022/03/04 05:56:44;;;;;;;94.82;29.00;;;;;;;0.65;72.93;101926.66;5019771;28;20022;-48
2022/03/04 05:59:09;;;;;;;92.90;28.73;;;;;;;0.70;73.14;101933.50;5032631;28;20080;-46
2022/03/04 06:01:34;;;;;;;98.22;29.83;;;;;;;0.72;72.95;101927.16;5032237;28;20428;-46
2022/03/04 06:04:00;;;;;;;94.97;30.85;;;;;;;0.70;72.86;101933.50;5026395;28;20025;-49
2022/03/04 06:06:26;;;;;;;87.70;29.85;;;;;;;0.65;72.67;101936.41;5033251;28;20121;-48
2022/03/04 06:08:52;;;;;;;100.97;32.80;;;;;;;0.72;73.13;101934.28;5033251;28;20041;-48
2022/03/04 06:11:18;;;;;;;97.00;31.77;;;;;;;0.78;73.01;101933.91;5032985;28;20025;-48
2022/03/04 06:13:45;;;;;;;106.18;31.33;;;;;;;0.72;72.73;101937.78;5029622;28;20104;-48
2022/03/04 06:16:11;;;;;;;95.47;28.73;;;;;;;0.82;72.32;101943.38;5030105;28;20098;-47
2022/03/04 06:18:37;;;;;;;99.57;30.15;;;;;;;0.78;72.58;101939.19;5050718;28;20033;-48
2022/03/04 06:21:03;;;;;;;99.32;31.92;;;;;;;0.75;72.74;101947.34;5026957;28;20052;-47
2022/03/04 06:23:28;;;;;;;115.78;31.45;;;;;;;0.76;72.92;101941.91;5017810;28;20379;-46
2022/03/04 06:25:55;;;;;;;103.82;32.00;;;;;;;0.75;72.94;101942.03;5019846;28;20136;-47
2022/03/04 06:28:21;;;;;;;125.60;33.35;;;;;;;0.76;72.79;101938.44;5018415;28;20033;-48
2022/03/04 06:30:46;;;;;;;105.88;32.33;;;;;;;0.77;72.82;101946.31;5027930;28;20408;-49
2022/03/04 06:33:30;;;;;;;97.00;31.38;;;;;;;0.87;72.86;101962.50;5028951;28;20033;-48
2022/03/04 06:35:55;;;;;;;100.50;30.52;;;;;;;0.90;72.67;101958.81;5026822;28;20413;-47
2022/03/04 06:38:21;;;;;;;95.13;30.92;;;;;;;0.93;72.40;101964.78;5026518;28;20030;-49
2022/03/04 06:40:47;;;;;;;98.45;30.33;;;;;;;0.95;72.03;101972.63;5015732;28;20041;-47
2022/03/04 06:43:13;;;;;;;96.70;31.27;;;;;;;0.96;72.02;101971.69;5026474;28;20036;-47
2022/03/04 06:45:43;;;;;;;96.35;31.60;;;;;;;1.21;71.82;101976.34;5019182;28;20021;-48
2022/03/04 06:50:38;;;;;;;93.20;30.90;;;;;;;1.91;71.47;101971.97;5062875;28;20399;-49
2022/03/04 06:53:03;;;;;;;103.45;33.35;;;;;;;2.25;69.79;101979.56;5052434;28;20041;-48
2022/03/04 06:55:29;;;;;;;108.93;32.75;;;;;;;2.63;68.91;101975.25;5049692;28;20026;-48
2022/03/04 06:57:55;;;;;;;91.68;31.48;;;;;;;3.08;67.76;101980.19;5059945;28;20059;-48
2022/03/04 07:00:21;;;;;;;93.32;31.63;;;;;;;3.43;65.76;101975.09;5059055;28;20445;-48
2022/03/04 07:02:47;;;;;;;101.18;32.28;;;;;;;3.52;63.56;101978.91;5050459;28;20025;-49
2022/03/04 07:05:13;;;;;;;88.60;30.45;;;;;;;3.41;63.23;101977.00;5048205;28;20100;-47
2022/03/04 07:07:38;;;;;;;89.28;28.60;;;;;;;3.39;64.03;101980.72;5048876;28;20105;-47
2022/03/04 07:10:04;;;;;;;85.88;28.33;;;;;;;3.52;64.14;101981.56;5047588;28;20037;-49
2022/03/04 07:12:30;;;;;;;83.22;28.95;;;;;;;3.82;62.56;101985.66;5048235;28;20037;-50
2022/03/04 07:14:55;;;;;;;83.30;28.75;;;;;;;3.73;62.12;101988.03;5048173;28;20400;-48
2022/03/04 07:17:21;;;;;;;78.30;28.92;;;;;;;3.71;62.60;101986.44;5047965;28;20022;-47
2022/03/04 07:19:46;;;;;;;92.45;29.98;;;;;;;3.68;61.93;101987.50;5048795;28;20116;-48
2022/03/04 07:22:11;;;;;;;85.38;27.92;;;;;;;4.04;61.89;101984.97;5048159;28;20033;-48
2022/03/04 07:24:37;;;;;;;72.43;26.63;;;;;;;4.47;60.36;101988.00;5048901;28;20029;-48
2022/03/04 07:27:03;;;;;;;69.78;26.80;;;;;;;4.58;59.93;101990.72;5046925;28;20079;-50
2022/03/04 07:29:28;;;;;;;72.95;27.52;;;;;;;4.81;58.80;101990.81;5048851;28;20477;-49
2022/03/04 07:31:54;;;;;;;68.63;26.33;;;;;;;5.14;58.00;101990.06;5048567;28;20035;-47
2022/03/04 07:34:21;;;;;;;65.57;26.52;;;;;;;5.48;56.72;101992.78;5048944;28;20048;-49
2022/03/04 07:36:47;;;;;;;65.00;26.02;;;;;;;5.67;56.35;102002.84;5046904;28;20071;-48
2022/03/04 07:39:12;;;;;;;67.20;28.02;;;;;;;5.87;55.76;101996.78;5048584;28;20492;-47
2022/03/04 07:41:38;;;;;;;65.45;25.88;;;;;;;6.01;54.58;101993.00;5048344;28;20493;-47
2022/03/04 07:44:04;;;;;;;63.17;26.27;;;;;;;6.17;53.95;101989.09;5049091;28;20033;-47
2022/03/04 07:46:29;;;;;;;68.47;25.52;;;;;;;6.29;53.40;102002.31;5049251;28;20033;-48
2022/03/04 07:48:54;;;;;;;72.70;24.90;;;;;;;6.21;53.77;101996.72;5047756;28;20135;-48
2022/03/04 07:51:20;;;;;;;61.28;24.63;;;;;;;6.71;52.60;101997.03;5049048;28;20137;-48
2022/03/04 07:53:45;;;;;;;63.92;24.15;;;;;;;7.77;50.40;102001.38;5049292;28;20033;-48
2022/03/04 07:56:10;;;;;;;49.63;23.38;;;;;;;8.25;48.57;102003.31;5049134;28;20021;-49
2022/03/04 07:58:36;;;;;;;53.90;24.05;;;;;;;8.60;47.06;102003.81;5048958;28;20349;-47
2022/03/04 08:01:02;;;;;;;52.70;23.98;;;;;;;8.81;46.45;102007.22;5040824;28;20040;-48
2022/03/04 08:03:27;;;;;;;54.28;23.88;;;;;;;9.44;45.03;101998.63;5034819;28;20065;-47
2022/03/04 08:05:52;;;;;;;52.53;24.55;;;;;;;10.16;43.04;101998.88;5035579;28;20126;-47
2022/03/04 08:08:18;;;;;;;55.15;23.02;;;;;;;10.32;43.12;102008.00;5035561;28;20104;-48
2022/03/04 08:10:43;;;;;;;48.25;23.40;;;;;;;10.17;42.58;102016.72;5035621;28;20026;-48
2022/03/04 08:13:08;;;;;;;49.85;23.83;;;;;;;10.54;42.01;102008.56;5034138;28;20449;-50
2022/03/04 08:15:34;;;;;;;45.38;22.58;;;;;;;10.43;42.15;102014.19;5035327;28;20433;-48
2022/03/04 08:17:59;;;;;;;48.10;23.50;;;;;;;10.98;41.73;102009.47;5035659;28;20436;-49
2022/03/04 08:20:26;;;;;;;43.13;22.08;;;;;;;11.15;40.47;102023.91;5035344;28;20064;-51
2022/03/04 08:22:52;;;;;;;43.78;22.40;;;;;;;10.93;40.65;102022.56;5029213;28;20030;-47
2022/03/04 08:25:17;;;;;;;42.70;22.33;;;;;;;11.00;40.44;102028.16;5015086;28;20030;-50
2022/03/04 08:27:43;;;;;;;46.42;23.02;;;;;;;9.98;42.70;102023.03;5015940;28;20481;-48
2022/03/04 08:30:09;;;;;;;48.20;22.67;;;;;;;10.06;42.48;102026.69;5014804;28;20104;-47
2022/03/04 08:32:35;;;;;;;44.15;23.83;;;;;;;10.33;42.62;102031.22;5014933;28;20113;-50
2022/03/04 08:35:01;;;;;;;50.88;24.05;;;;;;;10.75;42.04;102032.50;5014836;28;20041;-47
2022/03/04 08:37:26;;;;;;;46.30;23.80;;;;;;;10.33;41.19;102033.06;5014807;28;20057;-47
2022/03/04 08:39:52;;;;;;;46.53;24.17;;;;;;;10.76;41.35;102034.16;5014720;28;20025;-47
2022/03/04 08:42:17;;;;;;;49.75;23.33;;;;;;;10.94;40.87;102026.09;5018639;28;20091;-47
2022/03/04 08:44:42;;;;;;;43.20;22.92;;;;;;;10.80;41.37;102030.19;5034381;28;20508;-48
2022/03/04 08:47:08;;;;;;;49.00;23.85;;;;;;;11.54;40.67;102034.28;5034480;28;20543;-48
2022/03/04 08:49:34;;;;;;;43.65;22.55;;;;;;;12.64;38.18;102037.97;5033998;28;20053;-49
2022/03/04 08:51:59;;;;;;;45.47;22.50;;;;;;;13.35;36.02;102030.25;5034029;28;20064;-47
2022/03/04 08:54:25;;;;;;;46.95;23.98;;;;;;;12.62;36.90;102034.56;5033904;28;20029;-47
2022/03/04 08:56:50;;;;;;;48.92;24.58;;;;;;;12.74;37.05;102032.38;5034163;28;20039;-47
2022/03/04 08:59:16;;;;;;;47.38;23.60;;;;;;;11.61;38.70;102034.47;5034204;28;20044;-49
2022/03/04 09:01:41;;;;;;;43.15;22.75;;;;;;;11.37;39.04;102035.16;5034035;28;20053;-48
2022/03/04 09:04:06;;;;;;;52.22;24.65;;;;;;;11.10;39.86;102038.84;5032778;28;20141;-47
2022/03/04 09:06:32;;;;;;;47.10;24.83;;;;;;;10.82;40.57;102028.19;5032181;28;20083;-47
2022/03/04 09:08:57;;;;;;;48.92;23.63;;;;;;;12.31;38.26;102028.94;5033917;28;20417;-50
2022/03/04 09:11:22;;;;;;;45.72;22.40;;;;;;;13.16;37.15;102031.38;5033620;28;20096;-50
2022/03/04 09:13:48;;;;;;;46.80;24.42;;;;;;;12.18;37.56;102033.94;5032984;28;20476;-48
2022/03/04 09:16:14;;;;;;;44.72;24.40;;;;;;;12.40;37.35;102030.66;5033732;28;20371;-48
2022/03/04 09:18:39;;;;;;;43.08;22.75;;;;;;;13.47;36.16;102038.81;5033893;28;20033;-49
2022/03/04 09:21:04;;;;;;;42.25;24.42;;;;;;;12.43;36.31;102024.09;5033954;28;20037;-48
2022/03/04 09:23:30;;;;;;;53.85;24.55;;;;;;;11.74;38.36;102028.66;5033932;28;20053;-51
2022/03/04 09:25:55;;;;;;;48.78;23.92;;;;;;;12.66;36.44;102021.56;5034175;28;20083;-49
2022/03/04 09:28:20;;;;;;;49.55;22.95;;;;;;;12.95;35.78;102029.19;5027353;28;20026;-47
2022/03/04 09:30:46;;;;;;;48.15;23.48;;;;;;;12.92;36.60;102030.38;5026100;28;20056;-47
2022/03/04 09:33:11;;;;;;;51.53;24.90;;;;;;;11.94;37.25;102024.75;5033930;28;20024;-48
2022/03/04 09:35:37;;;;;;;52.40;24.50;;;;;;;12.26;37.56;102017.78;5033906;28;20068;-47
2022/03/04 09:38:03;;;;;;;41.00;21.35;;;;;;;11.21;38.47;102027.81;5033842;28;20117;-47
2022/03/04 09:40:28;;;;;;;50.00;21.88;;;;;;;11.64;38.23;102024.25;5032725;28;20057;-48
2022/03/04 09:42:54;;;;;;;47.15;23.58;;;;;;;11.76;38.50;102027.50;5034115;28;20104;-48
2022/03/04 09:45:19;;;;;;;45.85;22.45;;;;;;;11.83;37.75;102027.72;5033798;28;20040;-48
2022/03/04 09:47:45;;;;;;;50.85;23.55;;;;;;;11.62;38.55;102039.72;5033684;28;20109;-49
2022/03/04 09:50:12;;;;;;;45.55;23.90;;;;;;;11.55;38.53;102027.88;5033320;28;20050;-48
2022/03/04 09:52:37;;;;;;;45.60;22.63;;;;;;;11.30;38.59;102042.22;5032495;28;20527;-47
2022/03/04 09:55:03;;;;;;;44.72;23.10;;;;;;;11.29;38.89;102040.50;5033588;28;20048;-47
2022/03/04 09:57:29;;;;;;;53.00;23.55;;;;;;;11.15;39.61;102036.53;5033337;28;20534;-47
2022/03/04 09:59:54;;;;;;;51.53;23.73;;;;;;;11.46;40.70;102036.09;5033463;28;20029;-48
2022/03/04 10:02:20;;;;;;;45.47;22.92;;;;;;;11.55;39.88;102027.88;5032268;28;20029;-47
2022/03/04 10:04:45;;;;;;;49.08;23.30;;;;;;;11.67;39.35;102043.81;5033510;28;20127;-50
2022/03/04 10:07:15;;;;;;;48.08;23.33;;;;;;;11.69;39.44;102030.97;5015618;28;20037;-47
2022/03/04 10:09:46;;;;;;;47.05;24.05;;;;;;;11.46;40.28;102036.09;5033047;28;20424;-46
2022/03/04 10:12:13;;;;;;;51.90;24.45;;;;;;;11.67;39.99;102038.41;5033540;28;20021;-47
2022/03/04 10:15:07;;;;;;;49.33;23.08;;;;;;;11.42;39.59;102028.28;5033011;28;20040;-46
2022/03/04 10:17:35;;;;;;;49.33;22.67;;;;;;;11.53;39.81;102037.13;5033445;28;20037;-46
2022/03/04 10:20:03;;;;;;;52.22;23.58;;;;;;;11.24;41.03;102022.09;5033100;28;20037;-47
2022/03/04 10:22:42;;;;;;;56.45;24.40;;;;;;;10.92;41.15;102041.56;5025529;28;20066;-48
2022/03/04 10:25:14;;;;;;;55.92;24.02;;;;;;;11.11;41.37;102032.44;5013758;28;20502;-46
2022/03/04 10:27:39;;;;;;;61.92;25.63;;;;;;;11.09;41.57;102024.53;5013609;28;20125;-45
2022/03/04 10:30:05;;;;;;;53.05;24.27;;;;;;;10.57;42.51;102029.78;5013289;28;20104;-47
2022/03/04 10:32:32;;;;;;;47.97;24.48;;;;;;;10.50;42.98;102034.06;5013265;28;20113;-47
2022/03/04 10:35:03;;;;;;;49.40;24.77;;;;;;;10.82;41.77;102033.56;5013278;28;20062;-47
2022/03/04 10:37:41;;;;;;;52.45;24.95;;;;;;;10.20;43.28;102032.56;5013130;28;20109;-48
2022/03/04 10:40:16;;;;;;;52.30;25.40;;;;;;;9.37;45.14;102038.69;5013273;28;20496;-46
2022/03/04 10:42:57;;;;;;;54.05;24.27;;;;;;;9.68;44.90;102041.97;5013252;28;20342;-47
2022/03/04 10:45:28;;;;;;;55.13;23.40;;;;;;;10.13;43.75;102032.28;5013714;28;20497;-47
2022/03/04 10:47:56;;;;;;;59.13;24.77;;;;;;;9.82;44.40;102032.59;5013131;28;20437;-46
2022/03/04 10:50:33;;;;;;;49.13;23.67;;;;;;;9.95;45.24;102018.78;5013310;28;20049;-48
2022/03/04 10:53:10;;;;;;;54.78;25.38;;;;;;;10.42;45.02;102015.16;5013681;28;20030;-48
2022/03/04 10:55:49;;;;;;;52.35;24.08;;;;;;;10.14;43.63;102028.63;5013175;28;20096;-48
2022/03/04 10:58:16;;;;;;;54.63;24.90;;;;;;;10.73;43.23;102019.16;5013381;28;20065;-49
2022/03/04 11:00:46;;;;;;;48.60;24.77;;;;;;;11.14;42.55;102010.59;5012988;28;20383;-46
2022/03/04 11:03:17;;;;;;;49.30;24.20;;;;;;;11.90;41.55;102018.00;5012908;28;20038;-46
2022/03/04 11:05:43;;;;;;;48.47;24.00;;;;;;;11.80;41.53;102009.16;5012516;28;20052;-49
2022/03/04 11:08:09;;;;;;;51.22;24.55;;;;;;;11.82;41.25;102015.19;5010992;28;20485;-48
2022/03/04 11:10:35;;;;;;;51.50;24.10;;;;;;;11.38;41.66;102016.16;5012445;28;20045;-47
2022/03/04 11:13:04;;;;;;;52.55;24.35;;;;;;;11.12;41.93;102013.44;5014814;28;20133;-46